Albion, Pennsylvania
Current Conditions -  °F | °C
As of 6:51 PM on Sunday 23 Nov 2014 (Local Time) from KERI Reporting Station
Clear Clear  
Wind Chill: 13°   Ceiling: Unl
Heat Index: 13°   Visibility: 10mi
Dew Point:   Wind: 17mph
Humidity: 55%   Direction: 140°SE
Pressure: 29.72"   Gusts: NA
Location:  41.89°N, 80.36°W
Report Text: KERI 232351Z 14015KT 10SM CLR 13/04 A2972 RMK AO2 SLP066 T01280039 10139 20106 58037
Loading
Personal Weather Stations






























Interactive Weather Map New forecast layout! Learn more

10-Day Weather Forecast

Advertisements
Track Severe Weather on mobile